sensor_id;sensor_type;location;lat;lon;timestamp;temperature;humidity
13697;DHT22;6920;50.080;8.226;2023-05-07T00:01:50;15.90;99.90
13697;DHT22;6920;50.080;8.226;2023-05-07T00:04:18;15.90;99.90
13697;DHT22;6920;50.080;8.226;2023-05-07T00:06:45;15.90;99.90
13697;DHT22;6920;50.080;8.226;2023-05-07T00:09:12;15.80;99.90
13697;DHT22;6920;50.080;8.226;2023-05-07T00:11:41;15.80;99.90
13697;DHT22;6920;50.080;8.226;2023-05-07T00:14:08;15.80;99.90
13697;DHT22;6920;50.080;8.226;2023-05-07T00:16:35;15.80;99.90
13697;DHT22;6920;50.080;8.226;2023-05-07T00:19:05;15.80;99.90
13697;DHT22;6920;50.080;8.226;2023-05-07T00:21:33;15.80;99.90
13697;DHT22;6920;50.080;8.226;2023-05-07T00:24:01;15.90;99.90
13697;DHT22;6920;50.080;8.226;2023-05-07T00:26:28;15.90;99.90
13697;DHT22;6920;50.080;8.226;2023-05-07T00:28:55;15.90;99.90
13697;DHT22;6920;50.080;8.226;2023-05-07T00:31:22;15.90;99.90
13697;DHT22;6920;50.080;8.226;2023-05-07T00:33:50;15.80;99.90
13697;DHT22;6920;50.080;8.226;2023-05-07T00:36:19;15.70;99.90
13697;DHT22;6920;50.080;8.226;2023-05-07T00:38:46;15.80;99.90
13697;DHT22;6920;50.080;8.226;2023-05-07T00:41:15;15.80;99.90
13697;DHT22;6920;50.080;8.226;2023-05-07T00:43:45;15.80;99.90
13697;DHT22;6920;50.080;8.226;2023-05-07T00:46:15;15.70;99.90
13697;DHT22;6920;50.080;8.226;2023-05-07T00:48:42;15.70;99.90
13697;DHT22;6920;50.080;8.226;2023-05-07T00:51:10;15.70;99.90
13697;DHT22;6920;50.080;8.226;2023-05-07T00:53:42;15.70;99.90
13697;DHT22;6920;50.080;8.226;2023-05-07T00:56:10;15.60;99.90
13697;DHT22;6920;50.080;8.226;2023-05-07T00:58:37;15.50;99.90
13697;DHT22;6920;50.080;8.226;2023-05-07T01:01:06;15.60;99.90
13697;DHT22;6920;50.080;8.226;2023-05-07T01:03:34;15.60;99.90
13697;DHT22;6920;50.080;8.226;2023-05-07T01:06:03;15.70;99.90
13697;DHT22;6920;50.080;8.226;2023-05-07T01:08:31;15.70;99.90
13697;DHT22;6920;50.080;8.226;2023-05-07T01:11:03;15.70;99.90
13697;DHT22;6920;50.080;8.226;2023-05-07T01:13:33;15.70;99.90
13697;DHT22;6920;50.080;8.226;2023-05-07T01:16:01;15.60;99.90
13697;DHT22;6920;50.080;8.226;2023-05-07T01:18:29;15.60;99.90
13697;DHT22;6920;50.080;8.226;2023-05-07T01:20:58;15.50;99.90
13697;DHT22;6920;50.080;8.226;2023-05-07T01:23:30;15.50;99.90
13697;DHT22;6920;50.080;8.226;2023-05-07T01:25:59;15.50;99.90
13697;DHT22;6920;50.080;8.226;2023-05-07T01:28:30;15.40;99.90
13697;DHT22;6920;50.080;8.226;2023-05-07T01:31:00;15.30;99.90
13697;DHT22;6920;50.080;8.226;2023-05-07T01:33:31;15.40;99.90
13697;DHT22;6920;50.080;8.226;2023-05-07T01:36:01;15.40;99.90
13697;DHT22;6920;50.080;8.226;2023-05-07T01:38:31;15.40;99.90
13697;DHT22;6920;50.080;8.226;2023-05-07T01:40:58;15.60;99.90
13697;DHT22;6920;50.080;8.226;2023-05-07T01:43:26;15.60;99.90
13697;DHT22;6920;50.080;8.226;2023-05-07T01:45:53;15.60;99.90
13697;DHT22;6920;50.080;8.226;2023-05-07T01:48:21;15.60;99.90
13697;DHT22;6920;50.080;8.226;2023-05-07T01:50:49;15.60;99.90
13697;DHT22;6920;50.080;8.226;2023-05-07T01:53:17;15.60;99.90
13697;DHT22;6920;50.080;8.226;2023-05-07T01:55:46;15.60;99.90
13697;DHT22;6920;50.080;8.226;2023-05-07T01:58:13;15.70;99.90
13697;DHT22;6920;50.080;8.226;2023-05-07T02:00:40;15.70;99.90
13697;DHT22;6920;50.080;8.226;2023-05-07T02:03:08;15.70;99.90
13697;DHT22;6920;50.080;8.226;2023-05-07T02:05:36;15.70;99.90
13697;DHT22;6920;50.080;8.226;2023-05-07T02:08:04;15.70;99.90
13697;DHT22;6920;50.080;8.226;2023-05-07T02:10:32;15.70;99.90
13697;DHT22;6920;50.080;8.226;2023-05-07T02:13:02;15.60;99.90
13697;DHT22;6920;50.080;8.226;2023-05-07T02:15:29;15.60;99.90
13697;DHT22;6920;50.080;8.226;2023-05-07T02:18:03;15.60;99.90
13697;DHT22;6920;50.080;8.226;2023-05-07T02:20:31;15.60;99.90
13697;DHT22;6920;50.080;8.226;2023-05-07T02:22:59;15.60;99.90
13697;DHT22;6920;50.080;8.226;2023-05-07T02:25:26;15.70;99.90
13697;DHT22;6920;50.080;8.226;2023-05-07T02:30:24;15.70;99.90
13697;DHT22;6920;50.080;8.226;2023-05-07T02:32:52;15.70;99.90
13697;DHT22;6920;50.080;8.226;2023-05-07T02:35:20;15.80;99.90
13697;DHT22;6920;50.080;8.226;2023-05-07T02:37:49;15.80;99.90
13697;DHT22;6920;50.080;8.226;2023-05-07T02:40:18;15.80;99.90
13697;DHT22;6920;50.080;8.226;2023-05-07T02:42:45;15.70;99.90
13697;DHT22;6920;50.080;8.226;2023-05-07T02:45:13;15.80;99.90
13697;DHT22;6920;50.080;8.226;2023-05-07T02:47:43;15.80;99.90
13697;DHT22;6920;50.080;8.226;2023-05-07T02:50:11;15.80;99.90
13697;DHT22;6920;50.080;8.226;2023-05-07T02:52:39;15.70;99.90
13697;DHT22;6920;50.080;8.226;2023-05-07T02:55:07;15.70;99.90
13697;DHT22;6920;50.080;8.226;2023-05-07T02:57:35;15.60;99.90
13697;DHT22;6920;50.080;8.226;2023-05-07T03:00:14;15.70;99.90
13697;DHT22;6920;50.080;8.226;2023-05-07T03:02:43;15.70;99.90
13697;DHT22;6920;50.080;8.226;2023-05-07T03:05:10;15.80;99.90
13697;DHT22;6920;50.080;8.226;2023-05-07T03:07:38;15.70;99.90
13697;DHT22;6920;50.080;8.226;2023-05-07T03:10:07;15.70;99.90
13697;DHT22;6920;50.080;8.226;2023-05-07T03:12:35;15.70;99.90
13697;DHT22;6920;50.080;8.226;2023-05-07T03:15:03;15.70;99.90
13697;DHT22;6920;50.080;8.226;2023-05-07T03:17:30;15.70;99.90
13697;DHT22;6920;50.080;8.226;2023-05-07T03:19:59;15.60;99.90
13697;DHT22;6920;50.080;8.226;2023-05-07T03:22:26;15.60;99.90
13697;DHT22;6920;50.080;8.226;2023-05-07T03:24:53;15.60;99.90
13697;DHT22;6920;50.080;8.226;2023-05-07T03:27:20;15.50;99.90
13697;DHT22;6920;50.080;8.226;2023-05-07T03:29:49;15.70;99.90
13697;DHT22;6920;50.080;8.226;2023-05-07T03:32:18;15.70;99.90
13697;DHT22;6920;50.080;8.226;2023-05-07T03:34:46;15.60;99.90
13697;DHT22;6920;50.080;8.226;2023-05-07T03:37:17;15.50;99.90
13697;DHT22;6920;50.080;8.226;2023-05-07T03:39:45;15.50;99.90
13697;DHT22;6920;50.080;8.226;2023-05-07T03:42:12;15.50;99.90
13697;DHT22;6920;50.080;8.226;2023-05-07T03:44:41;15.60;99.90
13697;DHT22;6920;50.080;8.226;2023-05-07T03:49:37;15.60;99.90
13697;DHT22;6920;50.080;8.226;2023-05-07T03:52:05;15.50;99.90
13697;DHT22;6920;50.080;8.226;2023-05-07T03:54:34;15.40;99.90
13697;DHT22;6920;50.080;8.226;2023-05-07T03:57:02;15.50;99.90
13697;DHT22;6920;50.080;8.226;2023-05-07T03:59:29;15.50;99.90
13697;DHT22;6920;50.080;8.226;2023-05-07T04:01:58;15.40;99.90
13697;DHT22;6920;50.080;8.226;2023-05-07T04:04:26;15.40;99.90
13697;DHT22;6920;50.080;8.226;2023-05-07T04:06:59;15.50;99.90
13697;DHT22;6920;50.080;8.226;2023-05-07T04:09:27;15.50;99.90
13697;DHT22;6920;50.080;8.226;2023-05-07T04:11:57;15.50;99.90
13697;DHT22;6920;50.080;8.226;2023-05-07T04:14:24;15.60;99.90
13697;DHT22;6920;50.080;8.226;2023-05-07T04:16:53;15.60;99.90
13697;DHT22;6920;50.080;8.226;2023-05-07T04:19:20;15.60;99.90
13697;DHT22;6920;50.080;8.226;2023-05-07T04:21:47;15.50;99.90
13697;DHT22;6920;50.080;8.226;2023-05-07T04:24:14;15.50;99.90
13697;DHT22;6920;50.080;8.226;2023-05-07T04:26:43;15.50;99.90
13697;DHT22;6920;50.080;8.226;2023-05-07T04:29:11;15.40;99.90
13697;DHT22;6920;50.080;8.226;2023-05-07T04:31:39;15.40;99.90
13697;DHT22;6920;50.080;8.226;2023-05-07T04:34:06;15.30;99.90
13697;DHT22;6920;50.080;8.226;2023-05-07T04:36:34;15.40;99.90
13697;DHT22;6920;50.080;8.226;2023-05-07T04:39:02;15.40;99.90
13697;DHT22;6920;50.080;8.226;2023-05-07T04:43:57;15.50;99.90
13697;DHT22;6920;50.080;8.226;2023-05-07T04:46:28;15.50;99.90
13697;DHT22;6920;50.080;8.226;2023-05-07T04:48:55;15.50;99.90
13697;DHT22;6920;50.080;8.226;2023-05-07T04:51:22;15.50;99.90
13697;DHT22;6920;50.080;8.226;2023-05-07T04:53:51;15.50;99.90
13697;DHT22;6920;50.080;8.226;2023-05-07T04:56:21;15.60;99.90
13697;DHT22;6920;50.080;8.226;2023-05-07T04:58:49;15.70;99.90
13697;DHT22;6920;50.080;8.226;2023-05-07T05:01:18;15.80;99.90
13697;DHT22;6920;50.080;8.226;2023-05-07T05:03:46;15.80;99.90
13697;DHT22;6920;50.080;8.226;2023-05-07T05:06:15;15.90;99.90
13697;DHT22;6920;50.080;8.226;2023-05-07T05:08:42;15.90;99.90
13697;DHT22;6920;50.080;8.226;2023-05-07T05:11:10;16.00;99.90
13697;DHT22;6920;50.080;8.226;2023-05-07T05:13:37;16.10;99.90
13697;DHT22;6920;50.080;8.226;2023-05-07T05:16:05;16.20;99.90
13697;DHT22;6920;50.080;8.226;2023-05-07T05:18:33;16.10;99.90
13697;DHT22;6920;50.080;8.226;2023-05-07T05:21:03;16.10;99.90
13697;DHT22;6920;50.080;8.226;2023-05-07T05:25:59;16.20;99.90
13697;DHT22;6920;50.080;8.226;2023-05-07T05:30:54;16.30;99.90
13697;DHT22;6920;50.080;8.226;2023-05-07T05:33:21;16.40;99.90
13697;DHT22;6920;50.080;8.226;2023-05-07T05:35:50;16.50;99.90
13697;DHT22;6920;50.080;8.226;2023-05-07T05:38:20;16.60;99.90
13697;DHT22;6920;50.080;8.226;2023-05-07T05:40:47;16.70;99.90
13697;DHT22;6920;50.080;8.226;2023-05-07T05:43:15;16.80;99.90
13697;DHT22;6920;50.080;8.226;2023-05-07T05:45:46;16.80;99.90
13697;DHT22;6920;50.080;8.226;2023-05-07T05:48:14;16.90;99.90
13697;DHT22;6920;50.080;8.226;2023-05-07T05:50:42;17.00;99.90
13697;DHT22;6920;50.080;8.226;2023-05-07T05:53:09;17.00;99.90
13697;DHT22;6920;50.080;8.226;2023-05-07T05:55:39;17.10;99.90
13697;DHT22;6920;50.080;8.226;2023-05-07T05:58:06;17.10;99.90
13697;DHT22;6920;50.080;8.226;2023-05-07T06:00:35;17.10;99.90
13697;DHT22;6920;50.080;8.226;2023-05-07T06:03:03;17.20;99.90
13697;DHT22;6920;50.080;8.226;2023-05-07T06:05:31;17.20;99.90
13697;DHT22;6920;50.080;8.226;2023-05-07T06:07:58;17.10;99.90
13697;DHT22;6920;50.080;8.226;2023-05-07T06:10:25;17.20;99.90
13697;DHT22;6920;50.080;8.226;2023-05-07T06:12:55;17.30;99.90
13697;DHT22;6920;50.080;8.226;2023-05-07T06:15:22;17.30;99.90
13697;DHT22;6920;50.080;8.226;2023-05-07T06:17:51;17.70;99.90
13697;DHT22;6920;50.080;8.226;2023-05-07T06:20:19;17.90;99.90
13697;DHT22;6920;50.080;8.226;2023-05-07T06:22:47;18.10;99.90
13697;DHT22;6920;50.080;8.226;2023-05-07T06:25:16;18.30;99.90
13697;DHT22;6920;50.080;8.226;2023-05-07T06:27:43;18.50;99.90
13697;DHT22;6920;50.080;8.226;2023-05-07T06:30:12;18.30;99.90
13697;DHT22;6920;50.080;8.226;2023-05-07T06:32:40;18.30;99.90
13697;DHT22;6920;50.080;8.226;2023-05-07T06:35:09;18.40;99.90
13697;DHT22;6920;50.080;8.226;2023-05-07T06:37:41;18.40;99.90
13697;DHT22;6920;50.080;8.226;2023-05-07T06:40:16;18.60;99.90
13697;DHT22;6920;50.080;8.226;2023-05-07T06:42:43;18.80;99.90
13697;DHT22;6920;50.080;8.226;2023-05-07T06:45:18;18.80;99.90
13697;DHT22;6920;50.080;8.226;2023-05-07T06:50:15;18.80;99.90
13697;DHT22;6920;50.080;8.226;2023-05-07T06:52:43;18.70;99.90
13697;DHT22;6920;50.080;8.226;2023-05-07T06:55:10;18.60;99.90
13697;DHT22;6920;50.080;8.226;2023-05-07T06:57:38;18.80;99.90
13697;DHT22;6920;50.080;8.226;2023-05-07T07:00:13;18.80;99.90
13697;DHT22;6920;50.080;8.226;2023-05-07T07:02:46;18.50;99.90
13697;DHT22;6920;50.080;8.226;2023-05-07T07:05:13;18.50;99.90
13697;DHT22;6920;50.080;8.226;2023-05-07T07:07:41;18.70;99.90
13697;DHT22;6920;50.080;8.226;2023-05-07T07:10:09;18.80;99.90
13697;DHT22;6920;50.080;8.226;2023-05-07T07:12:36;18.90;99.90
13697;DHT22;6920;50.080;8.226;2023-05-07T07:15:05;19.00;99.90
13697;DHT22;6920;50.080;8.226;2023-05-07T07:17:35;19.10;99.90
13697;DHT22;6920;50.080;8.226;2023-05-07T07:20:03;19.10;99.90
13697;DHT22;6920;50.080;8.226;2023-05-07T07:22:31;19.10;99.90
13697;DHT22;6920;50.080;8.226;2023-05-07T07:24:58;19.10;99.90
13697;DHT22;6920;50.080;8.226;2023-05-07T07:27:26;19.00;99.90
13697;DHT22;6920;50.080;8.226;2023-05-07T07:29:58;19.10;99.90
13697;DHT22;6920;50.080;8.226;2023-05-07T07:32:26;19.20;99.90
13697;DHT22;6920;50.080;8.226;2023-05-07T07:34:55;19.40;99.90
13697;DHT22;6920;50.080;8.226;2023-05-07T07:37:23;19.40;99.90
13697;DHT22;6920;50.080;8.226;2023-05-07T07:39:51;19.20;99.90
13697;DHT22;6920;50.080;8.226;2023-05-07T07:42:20;19.20;99.90
13697;DHT22;6920;50.080;8.226;2023-05-07T07:44:48;19.30;99.90
13697;DHT22;6920;50.080;8.226;2023-05-07T07:47:17;19.40;99.90
13697;DHT22;6920;50.080;8.226;2023-05-07T07:49:50;19.40;99.90
13697;DHT22;6920;50.080;8.226;2023-05-07T07:52:19;19.40;99.90
13697;DHT22;6920;50.080;8.226;2023-05-07T07:54:46;19.50;99.90
13697;DHT22;6920;50.080;8.226;2023-05-07T07:57:14;19.30;99.90
13697;DHT22;6920;50.080;8.226;2023-05-07T07:59:42;19.40;99.90
13697;DHT22;6920;50.080;8.226;2023-05-07T08:02:10;19.60;99.90
13697;DHT22;6920;50.080;8.226;2023-05-07T08:04:37;19.50;99.90
13697;DHT22;6920;50.080;8.226;2023-05-07T08:07:05;19.50;99.90
13697;DHT22;6920;50.080;8.226;2023-05-07T08:09:34;19.70;99.90
13697;DHT22;6920;50.080;8.226;2023-05-07T08:12:02;19.90;99.90
13697;DHT22;6920;50.080;8.226;2023-05-07T08:14:33;19.80;99.90
13697;DHT22;6920;50.080;8.226;2023-05-07T08:17:03;19.80;99.90
13697;DHT22;6920;50.080;8.226;2023-05-07T08:19:32;20.00;99.90
13697;DHT22;6920;50.080;8.226;2023-05-07T08:21:59;20.10;99.90
13697;DHT22;6920;50.080;8.226;2023-05-07T08:24:26;20.40;99.90
13697;DHT22;6920;50.080;8.226;2023-05-07T08:26:56;20.30;99.90
13697;DHT22;6920;50.080;8.226;2023-05-07T08:29:28;20.10;99.90
13697;DHT22;6920;50.080;8.226;2023-05-07T08:31:59;19.90;99.90
13697;DHT22;6920;50.080;8.226;2023-05-07T08:34:27;19.60;99.90
13697;DHT22;6920;50.080;8.226;2023-05-07T08:36:54;20.00;99.90
13697;DHT22;6920;50.080;8.226;2023-05-07T08:39:22;20.30;99.90
13697;DHT22;6920;50.080;8.226;2023-05-07T08:41:55;20.50;99.90
13697;DHT22;6920;50.080;8.226;2023-05-07T08:44:26;20.60;99.90
13697;DHT22;6920;50.080;8.226;2023-05-07T08:46:56;20.90;99.90
13697;DHT22;6920;50.080;8.226;2023-05-07T08:49:26;20.80;99.90
13697;DHT22;6920;50.080;8.226;2023-05-07T08:51:53;21.40;99.90
13697;DHT22;6920;50.080;8.226;2023-05-07T08:54:22;21.80;99.90
13697;DHT22;6920;50.080;8.226;2023-05-07T08:56:50;21.90;99.90
13697;DHT22;6920;50.080;8.226;2023-05-07T08:59:19;21.20;99.90
13697;DHT22;6920;50.080;8.226;2023-05-07T09:01:47;21.50;99.90
13697;DHT22;6920;50.080;8.226;2023-05-07T09:04:15;22.00;99.90
13697;DHT22;6920;50.080;8.226;2023-05-07T09:09:14;22.00;99.90
13697;DHT22;6920;50.080;8.226;2023-05-07T09:14:12;22.20;99.90
13697;DHT22;6920;50.080;8.226;2023-05-07T09:16:49;22.20;99.90
13697;DHT22;6920;50.080;8.226;2023-05-07T09:19:23;22.40;99.90
13697;DHT22;6920;50.080;8.226;2023-05-07T09:22:01;22.50;99.90
13697;DHT22;6920;50.080;8.226;2023-05-07T09:24:31;22.80;99.90
13697;DHT22;6920;50.080;8.226;2023-05-07T09:27:02;23.20;99.90
13697;DHT22;6920;50.080;8.226;2023-05-07T09:29:29;22.80;99.90
13697;DHT22;6920;50.080;8.226;2023-05-07T09:32:03;22.70;99.90
13697;DHT22;6920;50.080;8.226;2023-05-07T09:34:30;22.30;99.90
13697;DHT22;6920;50.080;8.226;2023-05-07T09:36:59;22.70;99.90
13697;DHT22;6920;50.080;8.226;2023-05-07T09:39:38;22.70;99.90
13697;DHT22;6920;50.080;8.226;2023-05-07T09:42:06;22.70;99.90
13697;DHT22;6920;50.080;8.226;2023-05-07T09:44:34;22.90;99.90
13697;DHT22;6920;50.080;8.226;2023-05-07T09:47:05;22.90;99.90
13697;DHT22;6920;50.080;8.226;2023-05-07T09:49:35;23.00;99.90
13697;DHT22;6920;50.080;8.226;2023-05-07T09:52:07;23.40;99.90
13697;DHT22;6920;50.080;8.226;2023-05-07T09:54:36;23.10;99.90
13697;DHT22;6920;50.080;8.226;2023-05-07T09:57:05;22.80;99.90
13697;DHT22;6920;50.080;8.226;2023-05-07T09:59:35;22.70;99.90
13697;DHT22;6920;50.080;8.226;2023-05-07T10:02:05;22.70;99.90
13697;DHT22;6920;50.080;8.226;2023-05-07T10:04:34;23.10;99.90
13697;DHT22;6920;50.080;8.226;2023-05-07T10:07:03;23.20;99.90
13697;DHT22;6920;50.080;8.226;2023-05-07T10:09:33;23.50;99.90
13697;DHT22;6920;50.080;8.226;2023-05-07T10:12:05;23.60;99.90
13697;DHT22;6920;50.080;8.226;2023-05-07T10:14:34;23.60;99.90
13697;DHT22;6920;50.080;8.226;2023-05-07T10:17:02;24.00;99.90
13697;DHT22;6920;50.080;8.226;2023-05-07T10:19:34;24.30;99.90
13697;DHT22;6920;50.080;8.226;2023-05-07T10:22:06;24.10;99.90
13697;DHT22;6920;50.080;8.226;2023-05-07T10:24:36;24.10;99.90
13697;DHT22;6920;50.080;8.226;2023-05-07T10:27:10;24.10;99.90
13697;DHT22;6920;50.080;8.226;2023-05-07T10:29:45;24.10;99.90
13697;DHT22;6920;50.080;8.226;2023-05-07T10:32:37;24.20;99.90
13697;DHT22;6920;50.080;8.226;2023-05-07T10:35:12;24.10;99.90
13697;DHT22;6920;50.080;8.226;2023-05-07T10:37:42;24.10;99.90
13697;DHT22;6920;50.080;8.226;2023-05-07T10:40:11;24.30;99.90
13697;DHT22;6920;50.080;8.226;2023-05-07T10:42:53;24.30;99.90
13697;DHT22;6920;50.080;8.226;2023-05-07T10:45:23;24.50;99.90
13697;DHT22;6920;50.080;8.226;2023-05-07T10:48:09;24.40;99.90
13697;DHT22;6920;50.080;8.226;2023-05-07T10:50:40;24.40;99.90
13697;DHT22;6920;50.080;8.226;2023-05-07T10:53:24;24.50;99.90
13697;DHT22;6920;50.080;8.226;2023-05-07T10:56:28;24.40;99.90
13697;DHT22;6920;50.080;8.226;2023-05-07T10:58:55;24.00;99.90
13697;DHT22;6920;50.080;8.226;2023-05-07T11:01:52;24.00;99.90
13697;DHT22;6920;50.080;8.226;2023-05-07T11:04:20;24.30;99.90
13697;DHT22;6920;50.080;8.226;2023-05-07T11:10:01;24.30;99.90
13697;DHT22;6920;50.080;8.226;2023-05-07T11:12:52;24.20;99.90
13697;DHT22;6920;50.080;8.226;2023-05-07T11:15:40;24.20;99.90
13697;DHT22;6920;50.080;8.226;2023-05-07T11:18:15;24.00;99.90
13697;DHT22;6920;50.080;8.226;2023-05-07T11:20:49;24.20;99.90
13697;DHT22;6920;50.080;8.226;2023-05-07T11:26:53;23.90;99.90
13697;DHT22;6920;50.080;8.226;2023-05-07T11:29:24;24.30;99.90
13697;DHT22;6920;50.080;8.226;2023-05-07T11:31:52;23.90;99.90
13697;DHT22;6920;50.080;8.226;2023-05-07T11:34:24;24.10;99.90
13697;DHT22;6920;50.080;8.226;2023-05-07T11:36:53;24.30;99.90
13697;DHT22;6920;50.080;8.226;2023-05-07T11:39:25;24.30;99.90
13697;DHT22;6920;50.080;8.226;2023-05-07T11:41:54;24.10;99.90
13697;DHT22;6920;50.080;8.226;2023-05-07T11:44:21;24.00;99.90
13697;DHT22;6920;50.080;8.226;2023-05-07T11:46:50;24.10;99.90
13697;DHT22;6920;50.080;8.226;2023-05-07T11:49:19;24.10;99.90
13697;DHT22;6920;50.080;8.226;2023-05-07T11:51:47;23.90;99.90
13697;DHT22;6920;50.080;8.226;2023-05-07T11:54:18;23.90;99.90
13697;DHT22;6920;50.080;8.226;2023-05-07T11:56:48;24.10;99.90
13697;DHT22;6920;50.080;8.226;2023-05-07T11:59:19;24.40;99.90
13697;DHT22;6920;50.080;8.226;2023-05-07T12:01:47;24.20;99.90
13697;DHT22;6920;50.080;8.226;2023-05-07T12:04:19;24.60;99.90
13697;DHT22;6920;50.080;8.226;2023-05-07T12:06:48;24.90;99.90
13697;DHT22;6920;50.080;8.226;2023-05-07T12:09:16;25.00;99.90
13697;DHT22;6920;50.080;8.226;2023-05-07T12:11:46;24.80;99.90
13697;DHT22;6920;50.080;8.226;2023-05-07T12:14:14;24.60;99.90
13697;DHT22;6920;50.080;8.226;2023-05-07T12:16:44;24.70;99.90
13697;DHT22;6920;50.080;8.226;2023-05-07T12:19:13;24.60;99.90
13697;DHT22;6920;50.080;8.226;2023-05-07T12:21:41;25.30;99.90
13697;DHT22;6920;50.080;8.226;2023-05-07T12:24:15;25.20;99.90
13697;DHT22;6920;50.080;8.226;2023-05-07T12:26:44;24.70;99.90
13697;DHT22;6920;50.080;8.226;2023-05-07T12:29:12;24.70;99.90
13697;DHT22;6920;50.080;8.226;2023-05-07T12:31:45;24.80;99.90
13697;DHT22;6920;50.080;8.226;2023-05-07T12:34:14;24.50;99.90
13697;DHT22;6920;50.080;8.226;2023-05-07T12:36:44;24.40;99.90
13697;DHT22;6920;50.080;8.226;2023-05-07T12:39:11;25.50;99.90
13697;DHT22;6920;50.080;8.226;2023-05-07T12:41:54;25.80;99.60
13697;DHT22;6920;50.080;8.226;2023-05-07T12:44:24;24.90;99.90
13697;DHT22;6920;50.080;8.226;2023-05-07T12:46:53;24.80;99.90
13697;DHT22;6920;50.080;8.226;2023-05-07T12:49:20;24.80;99.90
13697;DHT22;6920;50.080;8.226;2023-05-07T12:51:49;25.00;99.90
13697;DHT22;6920;50.080;8.226;2023-05-07T12:54:28;24.80;99.90
13697;DHT22;6920;50.080;8.226;2023-05-07T12:57:01;24.80;99.90
13697;DHT22;6920;50.080;8.226;2023-05-07T12:59:33;24.70;99.90
13697;DHT22;6920;50.080;8.226;2023-05-07T13:02:02;24.90;99.60
13697;DHT22;6920;50.080;8.226;2023-05-07T13:04:29;24.80;99.30
13697;DHT22;6920;50.080;8.226;2023-05-07T13:09:24;24.90;99.40
13697;DHT22;6920;50.080;8.226;2023-05-07T13:11:51;24.60;99.90
13697;DHT22;6920;50.080;8.226;2023-05-07T13:14:19;24.70;99.90
13697;DHT22;6920;50.080;8.226;2023-05-07T13:16:47;24.60;99.90
13697;DHT22;6920;50.080;8.226;2023-05-07T13:19:16;24.50;99.90
13697;DHT22;6920;50.080;8.226;2023-05-07T13:21:44;25.10;99.90
13697;DHT22;6920;50.080;8.226;2023-05-07T13:24:13;25.30;99.90
13697;DHT22;6920;50.080;8.226;2023-05-07T13:26:43;26.20;99.30
13697;DHT22;6920;50.080;8.226;2023-05-07T13:29:11;26.70;98.60
13697;DHT22;6920;50.080;8.226;2023-05-07T13:31:40;26.10;98.80
13697;DHT22;6920;50.080;8.226;2023-05-07T13:34:11;26.30;97.80
13697;DHT22;6920;50.080;8.226;2023-05-07T13:36:40;27.00;98.10
13697;DHT22;6920;50.080;8.226;2023-05-07T13:39:08;26.10;97.70
13697;DHT22;6920;50.080;8.226;2023-05-07T13:41:37;26.40;97.80
13697;DHT22;6920;50.080;8.226;2023-05-07T13:44:05;26.50;97.60
13697;DHT22;6920;50.080;8.226;2023-05-07T13:46:33;26.50;97.60
13697;DHT22;6920;50.080;8.226;2023-05-07T13:51:28;26.60;97.80
13697;DHT22;6920;50.080;8.226;2023-05-07T13:53:59;26.70;97.60
13697;DHT22;6920;50.080;8.226;2023-05-07T13:56:26;26.60;96.90
13697;DHT22;6920;50.080;8.226;2023-05-07T13:58:54;26.10;97.30
13697;DHT22;6920;50.080;8.226;2023-05-07T14:01:22;26.70;97.50
13697;DHT22;6920;50.080;8.226;2023-05-07T14:03:49;26.90;96.90
13697;DHT22;6920;50.080;8.226;2023-05-07T14:06:17;26.50;97.40
13697;DHT22;6920;50.080;8.226;2023-05-07T14:08:44;26.60;97.40
13697;DHT22;6920;50.080;8.226;2023-05-07T14:11:14;26.80;96.90
13697;DHT22;6920;50.080;8.226;2023-05-07T14:13:41;26.80;96.40
13697;DHT22;6920;50.080;8.226;2023-05-07T14:16:09;26.30;96.50
13697;DHT22;6920;50.080;8.226;2023-05-07T14:18:37;25.70;96.50
13697;DHT22;6920;50.080;8.226;2023-05-07T14:21:04;26.10;96.50
13697;DHT22;6920;50.080;8.226;2023-05-07T14:23:34;26.60;96.00
13697;DHT22;6920;50.080;8.226;2023-05-07T14:26:03;26.60;95.70
13697;DHT22;6920;50.080;8.226;2023-05-07T14:28:33;26.50;95.70
13697;DHT22;6920;50.080;8.226;2023-05-07T14:31:02;25.60;96.70
13697;DHT22;6920;50.080;8.226;2023-05-07T14:33:32;25.60;96.70
13697;DHT22;6920;50.080;8.226;2023-05-07T14:36:02;25.60;96.70
13697;DHT22;6920;50.080;8.226;2023-05-07T14:38:30;25.40;97.00
13697;DHT22;6920;50.080;8.226;2023-05-07T14:41:00;25.60;97.20
13697;DHT22;6920;50.080;8.226;2023-05-07T14:43:28;25.60;97.20
13697;DHT22;6920;50.080;8.226;2023-05-07T14:45:58;25.30;97.10
13697;DHT22;6920;50.080;8.226;2023-05-07T14:48:26;25.30;97.20
13697;DHT22;6920;50.080;8.226;2023-05-07T14:50:58;25.40;97.30
13697;DHT22;6920;50.080;8.226;2023-05-07T14:53:26;25.10;97.10
13697;DHT22;6920;50.080;8.226;2023-05-07T14:55:54;25.10;97.40
13697;DHT22;6920;50.080;8.226;2023-05-07T14:58:21;25.00;97.90
13697;DHT22;6920;50.080;8.226;2023-05-07T15:03:17;24.70;97.50
13697;DHT22;6920;50.080;8.226;2023-05-07T15:05:46;24.80;98.00
13697;DHT22;6920;50.080;8.226;2023-05-07T15:08:13;25.00;97.70
13697;DHT22;6920;50.080;8.226;2023-05-07T15:10:41;25.10;97.60
13697;DHT22;6920;50.080;8.226;2023-05-07T15:13:11;25.00;98.00
13697;DHT22;6920;50.080;8.226;2023-05-07T15:15:40;24.80;97.60
13697;DHT22;6920;50.080;8.226;2023-05-07T15:18:08;25.00;97.20
13697;DHT22;6920;50.080;8.226;2023-05-07T15:20:38;24.70;97.10
13697;DHT22;6920;50.080;8.226;2023-05-07T15:23:06;24.60;97.90
13697;DHT22;6920;50.080;8.226;2023-05-07T15:25:36;24.60;98.00
13697;DHT22;6920;50.080;8.226;2023-05-07T15:28:03;24.60;97.90
13697;DHT22;6920;50.080;8.226;2023-05-07T15:30:32;24.60;97.90
13697;DHT22;6920;50.080;8.226;2023-05-07T15:33:00;24.40;97.80
13697;DHT22;6920;50.080;8.226;2023-05-07T15:35:28;24.40;98.00
13697;DHT22;6920;50.080;8.226;2023-05-07T15:37:57;24.30;97.80
13697;DHT22;6920;50.080;8.226;2023-05-07T15:40:25;24.20;98.50
13697;DHT22;6920;50.080;8.226;2023-05-07T15:42:54;24.20;98.50
13697;DHT22;6920;50.080;8.226;2023-05-07T15:45:22;24.20;98.20
13697;DHT22;6920;50.080;8.226;2023-05-07T15:47:51;24.20;98.00
13697;DHT22;6920;50.080;8.226;2023-05-07T15:50:18;24.00;98.40
13697;DHT22;6920;50.080;8.226;2023-05-07T15:52:45;24.00;98.60
13697;DHT22;6920;50.080;8.226;2023-05-07T15:55:14;24.00;99.00
13697;DHT22;6920;50.080;8.226;2023-05-07T15:57:43;23.80;98.90
13697;DHT22;6920;50.080;8.226;2023-05-07T16:00:12;23.80;98.90
13697;DHT22;6920;50.080;8.226;2023-05-07T16:02:41;23.90;98.80
13697;DHT22;6920;50.080;8.226;2023-05-07T16:05:10;23.80;99.00
13697;DHT22;6920;50.080;8.226;2023-05-07T16:07:38;23.70;99.20
13697;DHT22;6920;50.080;8.226;2023-05-07T16:10:08;23.60;99.50
13697;DHT22;6920;50.080;8.226;2023-05-07T16:12:39;23.70;99.40
13697;DHT22;6920;50.080;8.226;2023-05-07T16:15:06;23.70;99.00
13697;DHT22;6920;50.080;8.226;2023-05-07T16:17:34;23.70;99.40
13697;DHT22;6920;50.080;8.226;2023-05-07T16:20:02;23.50;99.40
13697;DHT22;6920;50.080;8.226;2023-05-07T16:22:31;23.40;99.20
13697;DHT22;6920;50.080;8.226;2023-05-07T16:24:59;23.30;99.40
13697;DHT22;6920;50.080;8.226;2023-05-07T16:27:30;23.20;99.30
13697;DHT22;6920;50.080;8.226;2023-05-07T16:30:01;23.20;99.60
13697;DHT22;6920;50.080;8.226;2023-05-07T16:32:31;23.10;99.60